Carver, Massachusetts
Current Conditions -  °F | °C
As of 12:52 AM on Thursday 23 Oct 2014 (Local Time) from KPYM Reporting Station
Heavy Rain Heavy Rain  
Wind Chill: 55°   Ceiling: 500
Heat Index: 55°   Visibility: 2mi
Dew Point: 54°   Wind: 17mph
Humidity: 96%   Direction: 40°NE
Pressure: 29.72"   Gusts: 28mph
Location:  41.88°N, 70.76°W
Report Text: KPYM 230452Z AUTO 04015G24KT 2SM +RA BR OVC005 13/12 A2972 RMK AO2 PK WND 04037/0415 LTG DSNT E AND W AND NW TSB0358E13B14E31 SLP063 P0036 T01280122 401390111
Loading
Personal Weather Stations






























Interactive Weather Map
Tropical Storm Tracking
New forecast layout! Learn more

10-Day Weather Forecast

Advertisements
Track Severe Weather on mobile